sensor_id;sensor_type;location;lat;lon;timestamp;pressure;altitude;pressure_sealevel;temperature;humidity
69187;BME280;56301;56.864;60.554;2022-11-20T00:01:25;99325.72;;;25.29;34.74
69187;BME280;56301;56.864;60.554;2022-11-20T00:03:48;99320.66;;;25.26;34.25
69187;BME280;56301;56.864;60.554;2022-11-20T00:06:11;99330.47;;;25.27;34.64
69187;BME280;56301;56.864;60.554;2022-11-20T00:08:34;99318.13;;;25.24;34.67
69187;BME280;56301;56.864;60.554;2022-11-20T00:10:56;99329.81;;;25.25;34.25
69187;BME280;56301;56.864;60.554;2022-11-20T00:13:19;99320.66;;;25.26;34.03
69187;BME280;56301;56.864;60.554;2022-11-20T00:15:41;99320.66;;;25.26;34.31
69187;BME280;56301;56.864;60.554;2022-11-20T00:18:04;99310.66;;;25.26;34.47
69187;BME280;56301;56.864;60.554;2022-11-20T00:20:26;99318.63;;;25.28;34.47
69187;BME280;56301;56.864;60.554;2022-11-20T00:22:49;99324.91;;;25.28;34.50
69187;BME280;56301;56.864;60.554;2022-11-20T00:25:12;99325.88;;;25.27;34.20
69187;BME280;56301;56.864;60.554;2022-11-20T00:27:34;99324.56;;;25.23;34.42
69187;BME280;56301;56.864;60.554;2022-11-20T00:29:56;99318.47;;;25.21;34.67
69187;BME280;56301;56.864;60.554;2022-11-20T00:32:19;99323.06;;;25.20;34.61
69187;BME280;56301;56.864;60.554;2022-11-20T00:34:41;99321.34;;;25.19;35.01
69187;BME280;56301;56.864;60.554;2022-11-20T00:37:03;99325.06;;;25.18;34.19
69187;BME280;56301;56.864;60.554;2022-11-20T00:39:26;99325.25;;;25.17;34.38
69187;BME280;56301;56.864;60.554;2022-11-20T00:41:48;99327.13;;;25.16;34.25
69187;BME280;56301;56.864;60.554;2022-11-20T00:44:11;99319.16;;;25.15;34.67
69187;BME280;56301;56.864;60.554;2022-11-20T00:46:33;99314.25;;;25.18;34.42
69187;BME280;56301;56.864;60.554;2022-11-20T00:48:56;99313.41;;;25.18;34.26
69187;BME280;56301;56.864;60.554;2022-11-20T00:51:19;99315.44;;;25.16;34.45
69187;BME280;56301;56.864;60.554;2022-11-20T00:53:42;99310.88;;;25.16;34.26
69187;BME280;56301;56.864;60.554;2022-11-20T00:56:06;99310.00;;;25.16;33.67
69187;BME280;56301;56.864;60.554;2022-11-20T00:58:30;99302.91;;;25.15;34.09
69187;BME280;56301;56.864;60.554;2022-11-20T01:00:52;99312.06;;;25.14;34.10
69187;BME280;56301;56.864;60.554;2022-11-20T01:03:15;99304.09;;;25.12;34.45
69187;BME280;56301;56.864;60.554;2022-11-20T01:05:38;99308.53;;;25.13;34.17
69187;BME280;56301;56.864;60.554;2022-11-20T01:08:00;99304.97;;;25.13;33.48
69187;BME280;56301;56.864;60.554;2022-11-20T01:10:23;99305.63;;;25.15;34.21
69187;BME280;56301;56.864;60.554;2022-11-20T01:12:45;99305.63;;;25.15;34.04
69187;BME280;56301;56.864;60.554;2022-11-20T01:15:08;99299.19;;;25.16;34.49
69187;BME280;56301;56.864;60.554;2022-11-20T01:17:31;99301.22;;;25.14;34.38
69187;BME280;56301;56.864;60.554;2022-11-20T01:19:53;99300.41;;;25.13;34.59
69187;BME280;56301;56.864;60.554;2022-11-20T01:22:15;99295.97;;;25.12;33.96
69187;BME280;56301;56.864;60.554;2022-11-20T01:24:38;99290.75;;;25.11;34.31
69187;BME280;56301;56.864;60.554;2022-11-20T01:27:00;99295.13;;;25.12;34.32
69187;BME280;56301;56.864;60.554;2022-11-20T01:29:23;99291.59;;;25.11;34.44
69187;BME280;56301;56.864;60.554;2022-11-20T01:31:46;99284.50;;;25.10;34.66
69187;BME280;56301;56.864;60.554;2022-11-20T01:34:12;99285.47;;;25.09;34.35
69187;BME280;56301;56.864;60.554;2022-11-20T01:36:35;99288.19;;;25.09;34.55
69187;BME280;56301;56.864;60.554;2022-11-20T01:39:00;99281.06;;;25.08;34.70
69187;BME280;56301;56.864;60.554;2022-11-20T01:41:23;99281.06;;;25.08;34.79
69187;BME280;56301;56.864;60.554;2022-11-20T01:43:45;99291.91;;;25.08;34.41
69187;BME280;56301;56.864;60.554;2022-11-20T01:48:42;99281.06;;;25.08;34.80
69187;BME280;56301;56.864;60.554;2022-11-20T01:51:07;99272.09;;;25.08;35.02
69187;BME280;56301;56.864;60.554;2022-11-20T01:53:34;99270.41;;;25.07;34.51
69187;BME280;56301;56.864;60.554;2022-11-20T01:55:58;99276.69;;;25.07;34.87
69187;BME280;56301;56.864;60.554;2022-11-20T01:58:27;99267.72;;;25.07;34.48
69187;BME280;56301;56.864;60.554;2022-11-20T02:00:50;99266.53;;;25.09;35.04
69187;BME280;56301;56.864;60.554;2022-11-20T02:03:14;99261.13;;;25.09;33.71
69187;BME280;56301;56.864;60.554;2022-11-20T02:08:00;99261.13;;;25.09;34.81
69187;BME280;56301;56.864;60.554;2022-11-20T02:10:24;99262.28;;;25.07;34.96
69187;BME280;56301;56.864;60.554;2022-11-20T02:12:47;99258.56;;;25.08;34.06
69187;BME280;56301;56.864;60.554;2022-11-20T02:15:10;99252.31;;;25.07;34.21
69187;BME280;56301;56.864;60.554;2022-11-20T02:17:32;99257.72;;;25.07;33.58
69187;BME280;56301;56.864;60.554;2022-11-20T02:19:55;99258.56;;;25.08;34.07
69187;BME280;56301;56.864;60.554;2022-11-20T02:22:28;99253.34;;;25.06;34.18
69187;BME280;56301;56.864;60.554;2022-11-20T02:24:53;99247.09;;;25.06;34.67
69187;BME280;56301;56.864;60.554;2022-11-20T02:27:15;99247.09;;;25.06;34.08
69187;BME280;56301;56.864;60.554;2022-11-20T02:29:46;99246.41;;;25.04;33.58
69187;BME280;56301;56.864;60.554;2022-11-20T02:34:48;99240.13;;;25.03;34.39
69187;BME280;56301;56.864;60.554;2022-11-20T02:37:10;99237.59;;;25.02;33.85
69187;BME280;56301;56.864;60.554;2022-11-20T02:39:33;99233.88;;;25.03;33.75
69187;BME280;56301;56.864;60.554;2022-11-20T02:41:55;99235.75;;;25.02;33.78
69187;BME280;56301;56.864;60.554;2022-11-20T02:44:18;99233.03;;;25.02;33.50
69187;BME280;56301;56.864;60.554;2022-11-20T02:46:40;99238.63;;;25.01;33.71
69187;BME280;56301;56.864;60.554;2022-11-20T02:49:03;99232.34;;;25.00;34.33
69187;BME280;56301;56.864;60.554;2022-11-20T02:51:26;99239.63;;;25.00;34.23
69187;BME280;56301;56.864;60.554;2022-11-20T02:53:48;99233.19;;;25.01;34.46
69187;BME280;56301;56.864;60.554;2022-11-20T02:56:11;99239.47;;;25.01;33.90
69187;BME280;56301;56.864;60.554;2022-11-20T02:58:33;99233.88;;;25.03;34.01
69187;BME280;56301;56.864;60.554;2022-11-20T03:00:56;99231.19;;;25.03;34.22
69187;BME280;56301;56.864;60.554;2022-11-20T03:03:19;99226.75;;;25.02;33.86
69187;BME280;56301;56.864;60.554;2022-11-20T03:05:41;99228.97;;;25.06;34.48
69187;BME280;56301;56.864;60.554;2022-11-20T03:08:04;99229.81;;;25.07;34.41
69187;BME280;56301;56.864;60.554;2022-11-20T03:10:26;99227.94;;;25.07;34.17
69187;BME280;56301;56.864;60.554;2022-11-20T03:12:52;99237.94;;;25.07;33.74
69187;BME280;56301;56.864;60.554;2022-11-20T03:15:15;99230.66;;;25.07;34.95
69187;BME280;56301;56.864;60.554;2022-11-20T03:17:37;99232.31;;;25.08;34.65
69187;BME280;56301;56.864;60.554;2022-11-20T03:20:00;99236.75;;;25.09;34.42
69187;BME280;56301;56.864;60.554;2022-11-20T03:22:22;99231.66;;;25.14;35.69
69187;BME280;56301;56.864;60.554;2022-11-20T03:24:45;99234.19;;;25.16;35.68
69187;BME280;56301;56.864;60.554;2022-11-20T03:27:07;99235.06;;;25.16;35.34
69187;BME280;56301;56.864;60.554;2022-11-20T03:29:29;99225.91;;;25.17;35.82
69187;BME280;56301;56.864;60.554;2022-11-20T03:31:52;99226.56;;;25.19;34.58
69187;BME280;56301;56.864;60.554;2022-11-20T03:34:14;99231.81;;;25.21;35.16
69187;BME280;56301;56.864;60.554;2022-11-20T03:36:37;99228.91;;;25.23;35.72
69187;BME280;56301;56.864;60.554;2022-11-20T03:39:00;99225.19;;;25.24;36.67
69187;BME280;56301;56.864;60.554;2022-11-20T03:41:25;99221.47;;;25.25;36.33
69187;BME280;56301;56.864;60.554;2022-11-20T03:43:48;99211.47;;;25.25;35.76
69187;BME280;56301;56.864;60.554;2022-11-20T03:46:11;99207.75;;;25.26;36.51
69187;BME280;56301;56.864;60.554;2022-11-20T03:48:33;99209.44;;;25.27;35.95
69187;BME280;56301;56.864;60.554;2022-11-20T03:51:09;99199.47;;;25.28;36.62
69187;BME280;56301;56.864;60.554;2022-11-20T03:53:32;99194.03;;;25.28;35.90
69187;BME280;56301;56.864;60.554;2022-11-20T03:55:54;99195.72;;;25.29;36.51
69187;BME280;56301;56.864;60.554;2022-11-20T03:58:17;99197.41;;;25.30;35.66
69187;BME280;56301;56.864;60.554;2022-11-20T04:00:39;99194.69;;;25.30;36.01
69187;BME280;56301;56.864;60.554;2022-11-20T04:03:01;99196.38;;;25.31;36.46
69187;BME280;56301;56.864;60.554;2022-11-20T04:05:24;99198.91;;;25.32;36.36
69187;BME280;56301;56.864;60.554;2022-11-20T04:07:47;99208.91;;;25.32;37.58
69187;BME280;56301;56.864;60.554;2022-11-20T04:10:09;99200.44;;;25.35;37.76
69187;BME280;56301;56.864;60.554;2022-11-20T04:12:32;99196.72;;;25.36;37.44
69187;BME280;56301;56.864;60.554;2022-11-20T04:14:55;99197.34;;;25.38;37.37
69187;BME280;56301;56.864;60.554;2022-11-20T04:17:17;99185.53;;;25.39;37.86
69187;BME280;56301;56.864;60.554;2022-11-20T04:19:39;99182.81;;;25.39;37.31
69187;BME280;56301;56.864;60.554;2022-11-20T04:22:02;99180.94;;;25.39;37.45
69187;BME280;56301;56.864;60.554;2022-11-20T04:24:24;99186.34;;;25.39;37.82
69187;BME280;56301;56.864;60.554;2022-11-20T04:26:48;99191.78;;;25.39;37.76
69187;BME280;56301;56.864;60.554;2022-11-20T04:29:11;99183.47;;;25.41;37.60
69187;BME280;56301;56.864;60.554;2022-11-20T04:31:34;99181.59;;;25.41;38.24
69187;BME280;56301;56.864;60.554;2022-11-20T04:34:00;99184.28;;;25.41;37.84
69187;BME280;56301;56.864;60.554;2022-11-20T04:36:23;99175.16;;;25.42;38.49
69187;BME280;56301;56.864;60.554;2022-11-20T04:38:46;99183.28;;;25.42;38.36
69187;BME280;56301;56.864;60.554;2022-11-20T04:41:14;99187.69;;;25.43;38.15
69187;BME280;56301;56.864;60.554;2022-11-20T04:43:37;99192.91;;;25.45;37.04
69187;BME280;56301;56.864;60.554;2022-11-20T04:46:00;99184.78;;;25.45;37.01
69187;BME280;56301;56.864;60.554;2022-11-20T04:48:22;99183.78;;;25.46;37.01
69187;BME280;56301;56.864;60.554;2022-11-20T04:50:46;99191.91;;;25.46;37.79
69187;BME280;56301;56.864;60.554;2022-11-20T04:53:08;99181.06;;;25.46;37.83
69187;BME280;56301;56.864;60.554;2022-11-20T04:55:30;99183.78;;;25.46;37.69
69187;BME280;56301;56.864;60.554;2022-11-20T04:57:53;99179.38;;;25.45;38.42
69187;BME280;56301;56.864;60.554;2022-11-20T05:00:16;99189.00;;;25.48;38.04
69187;BME280;56301;56.864;60.554;2022-11-20T05:02:38;99178.19;;;25.48;37.78
69187;BME280;56301;56.864;60.554;2022-11-20T05:05:00;99184.44;;;25.48;38.13
69187;BME280;56301;56.864;60.554;2022-11-20T05:07:23;99181.72;;;25.48;37.99
69187;BME280;56301;56.864;60.554;2022-11-20T05:09:45;99179.00;;;25.48;37.64
69187;BME280;56301;56.864;60.554;2022-11-20T05:12:08;99176.31;;;25.48;38.26
69187;BME280;56301;56.864;60.554;2022-11-20T05:14:31;99173.59;;;25.48;38.22
69187;BME280;56301;56.864;60.554;2022-11-20T05:16:53;99175.31;;;25.49;38.52
69187;BME280;56301;56.864;60.554;2022-11-20T05:19:15;99174.09;;;25.52;38.05
69187;BME280;56301;56.864;60.554;2022-11-20T05:21:38;99165.78;;;25.53;37.87
69187;BME280;56301;56.864;60.554;2022-11-20T05:24:00;99162.06;;;25.54;38.59
69187;BME280;56301;56.864;60.554;2022-11-20T05:26:23;99169.16;;;25.55;37.85
69187;BME280;56301;56.864;60.554;2022-11-20T05:28:45;99171.84;;;25.55;37.80
69187;BME280;56301;56.864;60.554;2022-11-20T05:31:09;99178.31;;;25.54;37.96
69187;BME280;56301;56.864;60.554;2022-11-20T05:33:32;99172.88;;;25.54;38.20
69187;BME280;56301;56.864;60.554;2022-11-20T05:35:57;99166.63;;;25.54;37.90
69187;BME280;56301;56.864;60.554;2022-11-20T05:38:20;99167.63;;;25.53;38.06
69187;BME280;56301;56.864;60.554;2022-11-20T05:40:42;99164.94;;;25.53;37.61
69187;BME280;56301;56.864;60.554;2022-11-20T05:43:05;99158.66;;;25.52;38.08
69187;BME280;56301;56.864;60.554;2022-11-20T05:45:27;99154.94;;;25.53;38.25
69187;BME280;56301;56.864;60.554;2022-11-20T05:47:50;99162.06;;;25.54;38.06
69187;BME280;56301;56.864;60.554;2022-11-20T05:50:13;99154.94;;;25.53;37.87
69187;BME280;56301;56.864;60.554;2022-11-20T05:52:35;99153.91;;;25.54;37.61
69187;BME280;56301;56.864;60.554;2022-11-20T05:54:57;99148.66;;;25.53;36.83
69187;BME280;56301;56.864;60.554;2022-11-20T05:57:20;99153.09;;;25.54;37.81
69187;BME280;56301;56.864;60.554;2022-11-20T05:59:42;99155.78;;;25.54;37.16
69187;BME280;56301;56.864;60.554;2022-11-20T06:02:05;99160.38;;;25.53;37.62
69187;BME280;56301;56.864;60.554;2022-11-20T06:04:27;99155.94;;;25.52;37.31
69187;BME280;56301;56.864;60.554;2022-11-20T06:06:50;99159.50;;;25.53;37.14
69187;BME280;56301;56.864;60.554;2022-11-20T06:09:12;99145.13;;;25.52;37.05
69187;BME280;56301;56.864;60.554;2022-11-20T06:11:34;99152.41;;;25.52;36.92
69187;BME280;56301;56.864;60.554;2022-11-20T06:13:57;99149.88;;;25.50;37.44
69187;BME280;56301;56.864;60.554;2022-11-20T06:16:19;99143.25;;;25.53;36.74
69187;BME280;56301;56.864;60.554;2022-11-20T06:18:42;99138.69;;;25.53;36.00
69187;BME280;56301;56.864;60.554;2022-11-20T06:21:05;99148.50;;;25.54;36.34
69187;BME280;56301;56.864;60.554;2022-11-20T06:23:29;99155.44;;;25.57;37.21
69187;BME280;56301;56.864;60.554;2022-11-20T06:25:52;99152.19;;;25.61;37.24
69187;BME280;56301;56.864;60.554;2022-11-20T06:28:15;99154.06;;;25.61;38.05
69187;BME280;56301;56.864;60.554;2022-11-20T06:30:44;99159.00;;;25.57;37.99
69187;BME280;56301;56.864;60.554;2022-11-20T06:33:06;99153.72;;;25.56;37.07
69187;BME280;56301;56.864;60.554;2022-11-20T06:35:28;99148.31;;;25.56;38.40
69187;BME280;56301;56.864;60.554;2022-11-20T06:37:51;99150.19;;;25.55;38.75
69187;BME280;56301;56.864;60.554;2022-11-20T06:40:13;99144.69;;;25.63;37.85
69187;BME280;56301;56.864;60.554;2022-11-20T06:42:36;99143.50;;;25.66;38.56
69187;BME280;56301;56.864;60.554;2022-11-20T06:44:58;99141.47;;;25.68;37.93
69187;BME280;56301;56.864;60.554;2022-11-20T06:47:21;99129.41;;;25.70;37.37
69187;BME280;56301;56.864;60.554;2022-11-20T06:49:43;99128.88;;;25.75;37.54
69187;BME280;56301;56.864;60.554;2022-11-20T06:52:05;99122.09;;;25.79;37.26
69187;BME280;56301;56.864;60.554;2022-11-20T06:54:28;99131.00;;;25.88;37.28
69187;BME280;56301;56.864;60.554;2022-11-20T06:56:50;99130.28;;;25.94;37.45
69187;BME280;56301;56.864;60.554;2022-11-20T06:59:13;99135.69;;;25.94;37.21
69187;BME280;56301;56.864;60.554;2022-11-20T07:01:35;99135.97;;;25.99;37.60
69187;BME280;56301;56.864;60.554;2022-11-20T07:03:58;99136.47;;;26.03;36.63
69187;BME280;56301;56.864;60.554;2022-11-20T07:06:20;99134.41;;;26.05;36.21
69187;BME280;56301;56.864;60.554;2022-11-20T07:08:42;99135.53;;;26.10;36.66
69187;BME280;56301;56.864;60.554;2022-11-20T07:11:05;99126.56;;;26.10;36.56
69187;BME280;56301;56.864;60.554;2022-11-20T07:13:28;99134.81;;;26.16;36.83
69187;BME280;56301;56.864;60.554;2022-11-20T07:15:51;99128.34;;;26.17;36.45
69187;BME280;56301;56.864;60.554;2022-11-20T07:18:13;99118.09;;;26.28;36.68
69187;BME280;56301;56.864;60.554;2022-11-20T07:20:36;99118.84;;;26.36;37.21
69187;BME280;56301;56.864;60.554;2022-11-20T07:22:58;99119.91;;;26.50;35.99
69187;BME280;56301;56.864;60.554;2022-11-20T07:25:21;99128.44;;;26.62;35.94
69187;BME280;56301;56.864;60.554;2022-11-20T07:27:44;99114.78;;;26.70;36.22
69187;BME280;56301;56.864;60.554;2022-11-20T07:30:06;99124.94;;;26.83;36.50
69187;BME280;56301;56.864;60.554;2022-11-20T07:32:29;99123.53;;;27.02;36.56
69187;BME280;56301;56.864;60.554;2022-11-20T07:34:51;99113.50;;;27.17;35.40
69187;BME280;56301;56.864;60.554;2022-11-20T07:37:13;99110.28;;;27.28;34.96
69187;BME280;56301;56.864;60.554;2022-11-20T07:39:36;99116.72;;;27.42;35.90
69187;BME280;56301;56.864;60.554;2022-11-20T07:41:58;99114.50;;;27.52;36.31
69187;BME280;56301;56.864;60.554;2022-11-20T07:44:21;99122.47;;;27.54;36.14
69187;BME280;56301;56.864;60.554;2022-11-20T07:46:43;99129.78;;;27.53;36.20
69187;BME280;56301;56.864;60.554;2022-11-20T07:49:06;99125.50;;;27.44;36.42
69187;BME280;56301;56.864;60.554;2022-11-20T07:51:28;99118.91;;;27.32;35.56
69187;BME280;56301;56.864;60.554;2022-11-20T07:53:51;99127.56;;;27.21;35.60
69187;BME280;56301;56.864;60.554;2022-11-20T07:56:13;99126.31;;;27.08;36.41
69187;BME280;56301;56.864;60.554;2022-11-20T07:58:36;99121.91;;;27.07;36.12
69187;BME280;56301;56.864;60.554;2022-11-20T08:01:02;99126.44;;;27.00;36.12
69187;BME280;56301;56.864;60.554;2022-11-20T08:03:24;99121.91;;;27.07;35.95
69187;BME280;56301;56.864;60.554;2022-11-20T08:05:47;99121.91;;;27.22;35.41
69187;BME280;56301;56.864;60.554;2022-11-20T08:08:09;99117.94;;;27.40;35.12
69187;BME280;56301;56.864;60.554;2022-11-20T08:10:31;99117.41;;;27.51;35.43
69187;BME280;56301;56.864;60.554;2022-11-20T08:12:54;99114.47;;;27.46;34.60
69187;BME280;56301;56.864;60.554;2022-11-20T08:15:16;99111.22;;;27.35;34.49
69187;BME280;56301;56.864;60.554;2022-11-20T08:17:39;99115.06;;;27.26;35.32
69187;BME280;56301;56.864;60.554;2022-11-20T08:20:01;99111.25;;;27.21;35.59
69187;BME280;56301;56.864;60.554;2022-11-20T08:22:23;99116.47;;;27.22;35.92
69187;BME280;56301;56.864;60.554;2022-11-20T08:24:46;99115.44;;;27.23;34.72
69187;BME280;56301;56.864;60.554;2022-11-20T08:27:08;99107.38;;;27.30;35.31
69187;BME280;56301;56.864;60.554;2022-11-20T08:29:31;99108.28;;;27.37;35.01
69187;BME280;56301;56.864;60.554;2022-11-20T08:31:53;99102.34;;;27.48;35.46
69187;BME280;56301;56.864;60.554;2022-11-20T08:34:15;99100.28;;;27.50;35.43
69187;BME280;56301;56.864;60.554;2022-11-20T08:36:38;99097.34;;;27.52;35.09
69187;BME280;56301;56.864;60.554;2022-11-20T08:39:00;99090.69;;;27.54;34.41
69187;BME280;56301;56.864;60.554;2022-11-20T08:41:23;99096.78;;;27.56;34.13
69187;BME280;56301;56.864;60.554;2022-11-20T08:43:45;99091.16;;;27.58;34.16
69187;BME280;56301;56.864;60.554;2022-11-20T08:46:08;99095.38;;;27.60;34.96
69187;BME280;56301;56.864;60.554;2022-11-20T08:48:30;99094.13;;;27.63;34.73
69187;BME280;56301;56.864;60.554;2022-11-20T08:50:53;99087.28;;;27.67;34.54
69187;BME280;56301;56.864;60.554;2022-11-20T08:53:15;99090.16;;;27.66;33.67
69187;BME280;56301;56.864;60.554;2022-11-20T08:55:37;99080.78;;;27.68;34.30
69187;BME280;56301;56.864;60.554;2022-11-20T08:58:03;99081.41;;;27.70;33.50
69187;BME280;56301;56.864;60.554;2022-11-20T09:00:26;99075.97;;;27.70;32.77
69187;BME280;56301;56.864;60.554;2022-11-20T09:02:49;99075.75;;;27.65;31.97
69187;BME280;56301;56.864;60.554;2022-11-20T09:05:11;99068.69;;;27.71;33.50
69187;BME280;56301;56.864;60.554;2022-11-20T09:07:34;99066.53;;;27.66;32.59
69187;BME280;56301;56.864;60.554;2022-11-20T09:09:56;99064.88;;;27.65;33.43
69187;BME280;56301;56.864;60.554;2022-11-20T09:12:19;99064.47;;;27.68;32.63
69187;BME280;56301;56.864;60.554;2022-11-20T09:14:41;99060.13;;;27.74;33.48
69187;BME280;56301;56.864;60.554;2022-11-20T09:17:04;99065.41;;;27.75;33.33
69187;BME280;56301;56.864;60.554;2022-11-20T09:19:26;99061.09;;;27.66;33.39
69187;BME280;56301;56.864;60.554;2022-11-20T09:21:49;99058.75;;;27.56;33.20
69187;BME280;56301;56.864;60.554;2022-11-20T09:24:12;99057.56;;;27.44;33.72
69187;BME280;56301;56.864;60.554;2022-11-20T09:26:35;99054.22;;;27.42;33.40
69187;BME280;56301;56.864;60.554;2022-11-20T09:28:57;99047.50;;;27.38;34.33
69187;BME280;56301;56.864;60.554;2022-11-20T09:31:22;99055.38;;;27.33;33.87
69187;BME280;56301;56.864;60.554;2022-11-20T09:33:45;99060.72;;;27.26;34.07
69187;BME280;56301;56.864;60.554;2022-11-20T09:36:08;99063.19;;;27.21;33.90
69187;BME280;56301;56.864;60.554;2022-11-20T09:38:30;99055.63;;;27.17;33.74
69187;BME280;56301;56.864;60.554;2022-11-20T09:43:18;99059.06;;;27.10;34.12
69187;BME280;56301;56.864;60.554;2022-11-20T09:48:15;99050.84;;;27.04;32.63
69187;BME280;56301;56.864;60.554;2022-11-20T09:50:49;99037.84;;;26.99;32.94
69187;BME280;56301;56.864;60.554;2022-11-20T09:55:55;99031.75;;;26.97;34.02
69187;BME280;56301;56.864;60.554;2022-11-20T09:58:24;99042.91;;;27.02;33.93
69187;BME280;56301;56.864;60.554;2022-11-20T10:00:47;99036.69;;;27.08;34.23
69187;BME280;56301;56.864;60.554;2022-11-20T10:03:12;99046.25;;;27.04;33.90
69187;BME280;56301;56.864;60.554;2022-11-20T10:08:10;99047.34;;;26.88;33.70
69187;BME280;56301;56.864;60.554;2022-11-20T10:10:59;99038.53;;;26.86;34.68
69187;BME280;56301;56.864;60.554;2022-11-20T10:15:57;99041.72;;;26.75;35.32
69187;BME280;56301;56.864;60.554;2022-11-20T10:21:17;99044.19;;;26.70;34.58
69187;BME280;56301;56.864;60.554;2022-11-20T10:24:04;99042.53;;;26.69;35.05
69187;BME280;56301;56.864;60.554;2022-11-20T10:33:52;99042.06;;;26.87;35.44
69187;BME280;56301;56.864;60.554;2022-11-20T10:36:19;99044.28;;;26.77;36.59
69187;BME280;56301;56.864;60.554;2022-11-20T10:38:44;99048.59;;;26.71;35.72
69187;BME280;56301;56.864;60.554;2022-11-20T10:41:12;99046.25;;;26.68;36.38
69187;BME280;56301;56.864;60.554;2022-11-20T10:43:38;99051.22;;;26.64;36.29
69187;BME280;56301;56.864;60.554;2022-11-20T10:46:05;99050.94;;;26.59;35.78
69187;BME280;56301;56.864;60.554;2022-11-20T10:48:31;99048.34;;;26.51;36.23
69187;BME280;56301;56.864;60.554;2022-11-20T10:51:07;99044.66;;;26.74;34.59
69187;BME280;56301;56.864;60.554;2022-11-20T10:56:21;99057.66;;;26.34;35.47
69187;BME280;56301;56.864;60.554;2022-11-20T10:58:48;99059.69;;;26.02;34.68
69187;BME280;56301;56.864;60.554;2022-11-20T11:01:16;99057.34;;;25.99;35.50
69187;BME280;56301;56.864;60.554;2022-11-20T11:03:38;99045.66;;;25.99;34.53
69187;BME280;56301;56.864;60.554;2022-11-20T11:06:08;99049.56;;;25.96;33.63
69187;BME280;56301;56.864;60.554;2022-11-20T11:08:37;99051.66;;;25.94;34.16
69187;BME280;56301;56.864;60.554;2022-11-20T11:11:02;99055.09;;;25.88;33.73
69187;BME280;56301;56.864;60.554;2022-11-20T11:13:26;99053.78;;;25.84;33.85
69187;BME280;56301;56.864;60.554;2022-11-20T11:15:49;99059.56;;;25.81;34.02
69187;BME280;56301;56.864;60.554;2022-11-20T11:18:11;99056.53;;;25.76;34.42
69187;BME280;56301;56.864;60.554;2022-11-20T11:20:49;99053.91;;;25.67;33.35
69187;BME280;56301;56.864;60.554;2022-11-20T11:23:22;99056.31;;;25.62;33.80
69187;BME280;56301;56.864;60.554;2022-11-20T11:25:55;99055.66;;;25.60;33.25
69187;BME280;56301;56.864;60.554;2022-11-20T11:30:41;99044.88;;;25.52;33.39
69187;BME280;56301;56.864;60.554;2022-11-20T11:33:17;99045.25;;;25.49;33.55
69187;BME280;56301;56.864;60.554;2022-11-20T11:35:45;99042.91;;;25.46;32.75
69187;BME280;56301;56.864;60.554;2022-11-20T11:38:11;99041.59;;;25.42;32.63
69187;BME280;56301;56.864;60.554;2022-11-20T11:40:35;99045.03;;;25.36;33.05
69187;BME280;56301;56.864;60.554;2022-11-20T11:42:59;99050.13;;;25.31;33.04
69187;BME280;56301;56.864;60.554;2022-11-20T11:45:23;99047.41;;;25.31;32.74
69187;BME280;56301;56.864;60.554;2022-11-20T11:47:46;99045.72;;;25.30;32.49
69187;BME280;56301;56.864;60.554;2022-11-20T11:52:32;99035.59;;;25.24;32.59
69187;BME280;56301;56.864;60.554;2022-11-20T11:55:00;99036.84;;;25.21;31.73
69187;BME280;56301;56.864;60.554;2022-11-20T12:00:13;99043.31;;;25.12;32.28
69187;BME280;56301;56.864;60.554;2022-11-20T12:02:46;99047.06;;;25.11;32.33
69187;BME280;56301;56.864;60.554;2022-11-20T12:07:41;99043.63;;;25.09;32.05
69187;BME280;56301;56.864;60.554;2022-11-20T12:10:04;99049.25;;;25.07;32.02
69187;BME280;56301;56.864;60.554;2022-11-20T12:12:30;99047.72;;;25.05;31.52
69187;BME280;56301;56.864;60.554;2022-11-20T12:14:55;99041.81;;;25.01;31.63
69187;BME280;56301;56.864;60.554;2022-11-20T12:17:18;99043.16;;;25.05;31.22
69187;BME280;56301;56.864;60.554;2022-11-20T12:19:40;99044.19;;;25.04;30.66
69187;BME280;56301;56.864;60.554;2022-11-20T12:25:04;99035.78;;;24.91;30.75
69187;BME280;56301;56.864;60.554;2022-11-20T12:33:15;99032.56;;;24.95;31.15
69187;BME280;56301;56.864;60.554;2022-11-20T12:35:21;99040.84;;;24.94;30.93
69187;BME280;56301;56.864;60.554;2022-11-20T12:42:56;99035.16;;;24.89;30.97
69187;BME280;56301;56.864;60.554;2022-11-20T12:58:23;99021.69;;;24.72;29.73
69187;BME280;56301;56.864;60.554;2022-11-20T13:03:43;99019.53;;;24.68;29.87
69187;BME280;56301;56.864;60.554;2022-11-20T13:06:16;99019.38;;;24.69;29.70
69187;BME280;56301;56.864;60.554;2022-11-20T13:08:39;99019.38;;;24.69;29.16
69187;BME280;56301;56.864;60.554;2022-11-20T13:16:19;99007.88;;;24.67;29.56
69187;BME280;56301;56.864;60.554;2022-11-20T13:18:44;99014.13;;;24.68;29.22
69187;BME280;56301;56.864;60.554;2022-11-20T13:21:23;99019.53;;;24.68;28.67
69187;BME280;56301;56.864;60.554;2022-11-20T13:24:03;99011.41;;;24.68;28.54
69187;BME280;56301;56.864;60.554;2022-11-20T13:26:26;99014.13;;;24.68;28.98
69187;BME280;56301;56.864;60.554;2022-11-20T13:29:02;99019.53;;;24.68;28.72
69187;BME280;56301;56.864;60.554;2022-11-20T13:31:33;99018.69;;;24.67;28.17
69187;BME280;56301;56.864;60.554;2022-11-20T13:33:56;99017.84;;;24.67;28.52
69187;BME280;56301;56.864;60.554;2022-11-20T13:36:21;99019.53;;;24.68;28.30
69187;BME280;56301;56.864;60.554;2022-11-20T13:38:48;99028.47;;;24.68;28.20
69187;BME280;56301;56.864;60.554;2022-11-20T13:41:10;99025.78;;;24.68;28.21
69187;BME280;56301;56.864;60.554;2022-11-20T13:43:42;99017.00;;;24.66;28.13
69187;BME280;56301;56.864;60.554;2022-11-20T13:46:05;99010.75;;;24.66;27.94
69187;BME280;56301;56.864;60.554;2022-11-20T13:48:30;99018.00;;;24.65;27.46
69187;BME280;56301;56.864;60.554;2022-11-20T13:51:04;99017.00;;;24.66;28.05